sensor_id;sensor_type;location;lat;lon;timestamp;temperature;humidity
70762;DHT22;58360;0.000;0.000;2023-09-12T00:00:04;22.60;94.40
70762;DHT22;58360;0.000;0.000;2023-09-12T00:02:30;22.30;95.00
70762;DHT22;58360;0.000;0.000;2023-09-12T00:04:56;22.40;95.00
70762;DHT22;58360;0.000;0.000;2023-09-12T00:07:22;22.50;94.90
70762;DHT22;58360;0.000;0.000;2023-09-12T00:09:47;22.60;94.40
70762;DHT22;58360;0.000;0.000;2023-09-12T00:12:16;22.90;93.50
70762;DHT22;58360;0.000;0.000;2023-09-12T00:14:42;23.10;92.80
70762;DHT22;58360;0.000;0.000;2023-09-12T00:17:08;23.00;93.20
70762;DHT22;58360;0.000;0.000;2023-09-12T00:19:34;22.90;93.30
70762;DHT22;58360;0.000;0.000;2023-09-12T00:22:00;22.80;93.40
70762;DHT22;58360;0.000;0.000;2023-09-12T00:24:26;22.80;93.50
70762;DHT22;58360;0.000;0.000;2023-09-12T00:26:51;22.80;93.60
70762;DHT22;58360;0.000;0.000;2023-09-12T00:29:16;22.70;93.60
70762;DHT22;58360;0.000;0.000;2023-09-12T00:31:42;22.60;94.00
70762;DHT22;58360;0.000;0.000;2023-09-12T00:34:08;22.50;94.50
70762;DHT22;58360;0.000;0.000;2023-09-12T00:36:33;22.10;95.00
70762;DHT22;58360;0.000;0.000;2023-09-12T00:38:59;22.10;95.20
70762;DHT22;58360;0.000;0.000;2023-09-12T00:41:24;22.10;95.20
70762;DHT22;58360;0.000;0.000;2023-09-12T00:43:50;22.10;95.30
70762;DHT22;58360;0.000;0.000;2023-09-12T00:46:18;22.20;95.30
70762;DHT22;58360;0.000;0.000;2023-09-12T00:48:43;22.40;94.70
70762;DHT22;58360;0.000;0.000;2023-09-12T00:51:10;22.40;94.60
70762;DHT22;58360;0.000;0.000;2023-09-12T00:53:35;22.30;94.90
70762;DHT22;58360;0.000;0.000;2023-09-12T00:56:01;22.20;95.10
70762;DHT22;58360;0.000;0.000;2023-09-12T00:58:26;22.40;94.70
70762;DHT22;58360;0.000;0.000;2023-09-12T01:00:53;22.60;94.20
70762;DHT22;58360;0.000;0.000;2023-09-12T01:03:18;22.70;94.00
70762;DHT22;58360;0.000;0.000;2023-09-12T01:05:44;22.60;94.20
70762;DHT22;58360;0.000;0.000;2023-09-12T01:08:10;22.50;94.50
70762;DHT22;58360;0.000;0.000;2023-09-12T01:10:36;22.40;94.90
70762;DHT22;58360;0.000;0.000;2023-09-12T01:13:01;22.30;95.30
70762;DHT22;58360;0.000;0.000;2023-09-12T01:15:27;22.20;95.60
70762;DHT22;58360;0.000;0.000;2023-09-12T01:17:53;22.10;95.80
70762;DHT22;58360;0.000;0.000;2023-09-12T01:20:27;22.00;96.10
70762;DHT22;58360;0.000;0.000;2023-09-12T01:23:00;22.30;95.30
70762;DHT22;58360;0.000;0.000;2023-09-12T01:28:10;22.40;95.00
70762;DHT22;58360;0.000;0.000;2023-09-12T01:30:37;22.40;95.10
70762;DHT22;58360;0.000;0.000;2023-09-12T01:33:04;22.40;95.10
70762;DHT22;58360;0.000;0.000;2023-09-12T01:35:29;22.70;94.30
70762;DHT22;58360;0.000;0.000;2023-09-12T01:37:55;22.60;94.60
70762;DHT22;58360;0.000;0.000;2023-09-12T01:40:24;22.40;94.90
70762;DHT22;58360;0.000;0.000;2023-09-12T01:42:52;22.40;95.00
70762;DHT22;58360;0.000;0.000;2023-09-12T01:45:18;22.30;95.50
70762;DHT22;58360;0.000;0.000;2023-09-12T01:47:45;22.10;95.90
70762;DHT22;58360;0.000;0.000;2023-09-12T01:50:11;22.10;96.00
70762;DHT22;58360;0.000;0.000;2023-09-12T01:52:38;22.00;96.20
70762;DHT22;58360;0.000;0.000;2023-09-12T01:55:04;21.90;96.10
70762;DHT22;58360;0.000;0.000;2023-09-12T01:57:30;21.90;96.40
70762;DHT22;58360;0.000;0.000;2023-09-12T01:59:55;21.80;96.60
70762;DHT22;58360;0.000;0.000;2023-09-12T02:02:21;21.80;96.40
70762;DHT22;58360;0.000;0.000;2023-09-12T02:04:50;21.80;96.50
70762;DHT22;58360;0.000;0.000;2023-09-12T02:07:18;21.70;96.70
70762;DHT22;58360;0.000;0.000;2023-09-12T02:09:43;21.70;96.70
70762;DHT22;58360;0.000;0.000;2023-09-12T02:12:09;21.70;96.80
70762;DHT22;58360;0.000;0.000;2023-09-12T02:14:34;21.90;96.30
70762;DHT22;58360;0.000;0.000;2023-09-12T02:17:00;21.60;96.70
70762;DHT22;58360;0.000;0.000;2023-09-12T02:19:25;21.50;97.10
70762;DHT22;58360;0.000;0.000;2023-09-12T02:21:51;21.50;97.20
70762;DHT22;58360;0.000;0.000;2023-09-12T02:24:16;21.60;97.10
70762;DHT22;58360;0.000;0.000;2023-09-12T02:26:43;21.50;97.00
70762;DHT22;58360;0.000;0.000;2023-09-12T02:29:09;21.60;97.20
70762;DHT22;58360;0.000;0.000;2023-09-12T02:31:35;21.50;97.60
70762;DHT22;58360;0.000;0.000;2023-09-12T02:34:00;21.40;97.90
70762;DHT22;58360;0.000;0.000;2023-09-12T02:36:26;21.30;98.20
70762;DHT22;58360;0.000;0.000;2023-09-12T02:38:51;21.30;98.10
70762;DHT22;58360;0.000;0.000;2023-09-12T02:41:17;21.40;97.90
70762;DHT22;58360;0.000;0.000;2023-09-12T02:43:42;21.50;97.90
70762;DHT22;58360;0.000;0.000;2023-09-12T02:46:08;21.60;97.60
70762;DHT22;58360;0.000;0.000;2023-09-12T02:48:33;21.70;97.40
70762;DHT22;58360;0.000;0.000;2023-09-12T02:50:59;21.70;97.40
70762;DHT22;58360;0.000;0.000;2023-09-12T02:53:24;21.70;97.30
70762;DHT22;58360;0.000;0.000;2023-09-12T02:55:51;21.70;97.50
70762;DHT22;58360;0.000;0.000;2023-09-12T02:58:16;21.70;97.70
70762;DHT22;58360;0.000;0.000;2023-09-12T03:00:42;21.70;97.90
70762;DHT22;58360;0.000;0.000;2023-09-12T03:03:07;21.70;97.80
70762;DHT22;58360;0.000;0.000;2023-09-12T03:05:34;21.70;98.00
70762;DHT22;58360;0.000;0.000;2023-09-12T03:08:00;21.80;97.90
70762;DHT22;58360;0.000;0.000;2023-09-12T03:10:25;21.70;98.00
70762;DHT22;58360;0.000;0.000;2023-09-12T03:12:51;21.70;98.10
70762;DHT22;58360;0.000;0.000;2023-09-12T03:15:16;21.70;98.30
70762;DHT22;58360;0.000;0.000;2023-09-12T03:17:42;21.70;98.30
70762;DHT22;58360;0.000;0.000;2023-09-12T03:20:07;21.70;98.30
70762;DHT22;58360;0.000;0.000;2023-09-12T03:22:33;21.80;98.20
70762;DHT22;58360;0.000;0.000;2023-09-12T03:25:05;21.90;98.10
70762;DHT22;58360;0.000;0.000;2023-09-12T03:27:31;21.90;98.00
70762;DHT22;58360;0.000;0.000;2023-09-12T03:29:57;21.90;97.90
70762;DHT22;58360;0.000;0.000;2023-09-12T03:32:23;21.80;97.90
70762;DHT22;58360;0.000;0.000;2023-09-12T03:34:48;21.70;97.90
70762;DHT22;58360;0.000;0.000;2023-09-12T03:37:14;21.60;98.10
70762;DHT22;58360;0.000;0.000;2023-09-12T03:39:40;21.60;98.10
70762;DHT22;58360;0.000;0.000;2023-09-12T03:42:06;21.60;98.10
70762;DHT22;58360;0.000;0.000;2023-09-12T03:44:31;21.50;98.30
70762;DHT22;58360;0.000;0.000;2023-09-12T03:46:57;21.50;98.60
70762;DHT22;58360;0.000;0.000;2023-09-12T03:49:23;21.50;98.40
70762;DHT22;58360;0.000;0.000;2023-09-12T03:51:49;21.50;98.50
70762;DHT22;58360;0.000;0.000;2023-09-12T03:54:14;21.50;98.60
70762;DHT22;58360;0.000;0.000;2023-09-12T03:56:40;21.50;98.70
70762;DHT22;58360;0.000;0.000;2023-09-12T03:59:05;21.50;98.70
70762;DHT22;58360;0.000;0.000;2023-09-12T04:01:32;21.50;98.50
70762;DHT22;58360;0.000;0.000;2023-09-12T04:03:57;21.50;98.50
70762;DHT22;58360;0.000;0.000;2023-09-12T04:06:23;21.50;98.60
70762;DHT22;58360;0.000;0.000;2023-09-12T04:08:48;21.40;98.60
70762;DHT22;58360;0.000;0.000;2023-09-12T04:11:14;21.40;98.70
70762;DHT22;58360;0.000;0.000;2023-09-12T04:13:39;21.40;98.90
70762;DHT22;58360;0.000;0.000;2023-09-12T04:16:05;21.40;99.00
70762;DHT22;58360;0.000;0.000;2023-09-12T04:18:30;21.40;99.10
70762;DHT22;58360;0.000;0.000;2023-09-12T04:20:56;21.50;99.00
70762;DHT22;58360;0.000;0.000;2023-09-12T04:23:22;21.60;99.00
70762;DHT22;58360;0.000;0.000;2023-09-12T04:25:48;21.50;99.10
70762;DHT22;58360;0.000;0.000;2023-09-12T04:28:13;21.50;99.30
70762;DHT22;58360;0.000;0.000;2023-09-12T04:30:39;21.50;99.30
70762;DHT22;58360;0.000;0.000;2023-09-12T04:33:05;21.60;99.30
70762;DHT22;58360;0.000;0.000;2023-09-12T04:35:32;21.70;99.20
70762;DHT22;58360;0.000;0.000;2023-09-12T04:37:58;21.70;98.90
70762;DHT22;58360;0.000;0.000;2023-09-12T04:40:23;21.70;98.80
70762;DHT22;58360;0.000;0.000;2023-09-12T04:42:49;21.70;98.70
70762;DHT22;58360;0.000;0.000;2023-09-12T04:45:15;21.70;98.70
70762;DHT22;58360;0.000;0.000;2023-09-12T04:47:41;21.70;98.80
70762;DHT22;58360;0.000;0.000;2023-09-12T04:50:06;21.60;98.80
70762;DHT22;58360;0.000;0.000;2023-09-12T04:52:32;21.50;99.10
70762;DHT22;58360;0.000;0.000;2023-09-12T04:54:57;21.40;99.30
70762;DHT22;58360;0.000;0.000;2023-09-12T04:57:23;21.40;99.60
70762;DHT22;58360;0.000;0.000;2023-09-12T04:59:48;21.40;99.70
70762;DHT22;58360;0.000;0.000;2023-09-12T05:02:14;21.40;99.50
70762;DHT22;58360;0.000;0.000;2023-09-12T05:04:40;21.40;99.60
70762;DHT22;58360;0.000;0.000;2023-09-12T05:07:06;21.40;99.70
70762;DHT22;58360;0.000;0.000;2023-09-12T05:09:31;21.30;99.70
70762;DHT22;58360;0.000;0.000;2023-09-12T05:11:57;21.20;99.80
70762;DHT22;58360;0.000;0.000;2023-09-12T05:14:22;21.20;99.90
70762;DHT22;58360;0.000;0.000;2023-09-12T05:16:48;21.20;99.90
70762;DHT22;58360;0.000;0.000;2023-09-12T05:19:14;21.30;99.90
70762;DHT22;58360;0.000;0.000;2023-09-12T05:21:39;21.30;99.90
70762;DHT22;58360;0.000;0.000;2023-09-12T05:24:05;21.30;99.90
70762;DHT22;58360;0.000;0.000;2023-09-12T05:26:30;21.40;99.90
70762;DHT22;58360;0.000;0.000;2023-09-12T05:28:56;21.40;99.90
70762;DHT22;58360;0.000;0.000;2023-09-12T05:31:22;21.50;99.90
70762;DHT22;58360;0.000;0.000;2023-09-12T05:33:47;21.50;99.80
70762;DHT22;58360;0.000;0.000;2023-09-12T05:36:14;21.40;99.90
70762;DHT22;58360;0.000;0.000;2023-09-12T05:38:39;21.30;99.90
70762;DHT22;58360;0.000;0.000;2023-09-12T05:41:05;21.30;99.90
70762;DHT22;58360;0.000;0.000;2023-09-12T05:43:31;21.40;99.90
70762;DHT22;58360;0.000;0.000;2023-09-12T05:45:57;21.40;99.90
70762;DHT22;58360;0.000;0.000;2023-09-12T05:48:23;21.60;99.70
70762;DHT22;58360;0.000;0.000;2023-09-12T05:50:49;21.70;99.60
70762;DHT22;58360;0.000;0.000;2023-09-12T05:53:14;21.80;99.50
70762;DHT22;58360;0.000;0.000;2023-09-12T05:55:40;21.80;99.20
70762;DHT22;58360;0.000;0.000;2023-09-12T05:58:05;21.70;99.80
70762;DHT22;58360;0.000;0.000;2023-09-12T06:00:31;21.60;99.90
70762;DHT22;58360;0.000;0.000;2023-09-12T06:02:57;21.80;99.30
70762;DHT22;58360;0.000;0.000;2023-09-12T06:05:23;21.80;99.50
70762;DHT22;58360;0.000;0.000;2023-09-12T06:07:48;21.70;99.60
70762;DHT22;58360;0.000;0.000;2023-09-12T06:10:14;21.90;99.20
70762;DHT22;58360;0.000;0.000;2023-09-12T06:12:39;21.80;99.40
70762;DHT22;58360;0.000;0.000;2023-09-12T06:15:05;21.90;99.10
70762;DHT22;58360;0.000;0.000;2023-09-12T06:17:31;21.90;99.30
70762;DHT22;58360;0.000;0.000;2023-09-12T06:19:56;21.80;99.60
70762;DHT22;58360;0.000;0.000;2023-09-12T06:22:22;21.80;99.90
70762;DHT22;58360;0.000;0.000;2023-09-12T06:24:50;21.90;99.40
70762;DHT22;58360;0.000;0.000;2023-09-12T06:27:16;22.00;99.60
70762;DHT22;58360;0.000;0.000;2023-09-12T06:29:50;22.10;99.30
70762;DHT22;58360;0.000;0.000;2023-09-12T06:32:17;22.10;99.50
70762;DHT22;58360;0.000;0.000;2023-09-12T06:34:43;22.10;99.30
70762;DHT22;58360;0.000;0.000;2023-09-12T06:37:08;22.30;98.90
70762;DHT22;58360;0.000;0.000;2023-09-12T06:39:34;22.30;98.90
70762;DHT22;58360;0.000;0.000;2023-09-12T06:41:59;22.30;98.70
70762;DHT22;58360;0.000;0.000;2023-09-12T06:44:25;22.50;98.30
70762;DHT22;58360;0.000;0.000;2023-09-12T06:46:50;22.50;98.20
70762;DHT22;58360;0.000;0.000;2023-09-12T06:49:16;22.40;98.30
70762;DHT22;58360;0.000;0.000;2023-09-12T06:51:41;22.50;97.90
70762;DHT22;58360;0.000;0.000;2023-09-12T06:54:07;22.60;97.90
70762;DHT22;58360;0.000;0.000;2023-09-12T06:56:32;22.40;98.50
70762;DHT22;58360;0.000;0.000;2023-09-12T06:59:03;22.30;99.00
70762;DHT22;58360;0.000;0.000;2023-09-12T07:01:29;22.40;99.10
70762;DHT22;58360;0.000;0.000;2023-09-12T07:03:54;22.40;99.00
70762;DHT22;58360;0.000;0.000;2023-09-12T07:06:21;22.40;99.00
70762;DHT22;58360;0.000;0.000;2023-09-12T07:08:46;22.70;98.00
70762;DHT22;58360;0.000;0.000;2023-09-12T07:11:12;22.80;98.00
70762;DHT22;58360;0.000;0.000;2023-09-12T07:13:37;23.00;97.50
70762;DHT22;58360;0.000;0.000;2023-09-12T07:16:03;23.20;97.10
70762;DHT22;58360;0.000;0.000;2023-09-12T07:18:29;23.20;97.40
70762;DHT22;58360;0.000;0.000;2023-09-12T07:21:02;23.10;97.50
70762;DHT22;58360;0.000;0.000;2023-09-12T07:23:28;23.10;97.40
70762;DHT22;58360;0.000;0.000;2023-09-12T07:25:54;23.20;97.00
70762;DHT22;58360;0.000;0.000;2023-09-12T07:28:20;23.40;96.30
70762;DHT22;58360;0.000;0.000;2023-09-12T07:30:46;23.30;96.70
70762;DHT22;58360;0.000;0.000;2023-09-12T07:33:12;23.30;97.10
70762;DHT22;58360;0.000;0.000;2023-09-12T07:35:37;23.40;97.20
70762;DHT22;58360;0.000;0.000;2023-09-12T07:38:03;23.50;97.00
70762;DHT22;58360;0.000;0.000;2023-09-12T07:40:28;23.70;96.30
70762;DHT22;58360;0.000;0.000;2023-09-12T07:42:54;24.00;96.00
70762;DHT22;58360;0.000;0.000;2023-09-12T07:45:20;24.10;95.80
70762;DHT22;58360;0.000;0.000;2023-09-12T07:47:45;24.30;95.00
70762;DHT22;58360;0.000;0.000;2023-09-12T07:50:11;24.50;95.40
70762;DHT22;58360;0.000;0.000;2023-09-12T07:52:36;24.70;95.70
70762;DHT22;58360;0.000;0.000;2023-09-12T07:55:02;25.40;94.60
70762;DHT22;58360;0.000;0.000;2023-09-12T07:57:28;25.80;94.00
70762;DHT22;58360;0.000;0.000;2023-09-12T07:59:54;26.00;92.50
70762;DHT22;58360;0.000;0.000;2023-09-12T08:02:20;26.30;92.00
70762;DHT22;58360;0.000;0.000;2023-09-12T08:04:45;26.20;91.30
70762;DHT22;58360;0.000;0.000;2023-09-12T08:07:11;26.10;91.80
70762;DHT22;58360;0.000;0.000;2023-09-12T08:09:50;26.10;92.00
70762;DHT22;58360;0.000;0.000;2023-09-12T08:12:16;25.80;92.60
70762;DHT22;58360;0.000;0.000;2023-09-12T08:14:42;25.60;91.60
70762;DHT22;58360;0.000;0.000;2023-09-12T08:17:07;25.40;92.90
70762;DHT22;58360;0.000;0.000;2023-09-12T08:19:33;25.40;92.60
70762;DHT22;58360;0.000;0.000;2023-09-12T08:21:58;25.40;91.60
70762;DHT22;58360;0.000;0.000;2023-09-12T08:24:24;25.10;92.60
70762;DHT22;58360;0.000;0.000;2023-09-12T08:26:49;24.80;93.70
70762;DHT22;58360;0.000;0.000;2023-09-12T08:29:15;24.70;93.80
70762;DHT22;58360;0.000;0.000;2023-09-12T08:31:40;24.90;93.30
70762;DHT22;58360;0.000;0.000;2023-09-12T08:34:06;25.00;92.00
70762;DHT22;58360;0.000;0.000;2023-09-12T08:36:31;25.30;92.10
70762;DHT22;58360;0.000;0.000;2023-09-12T08:38:57;25.50;91.90
70762;DHT22;58360;0.000;0.000;2023-09-12T08:41:22;25.80;92.60
70762;DHT22;58360;0.000;0.000;2023-09-12T08:43:48;26.30;90.30
70762;DHT22;58360;0.000;0.000;2023-09-12T08:46:14;26.60;90.60
70762;DHT22;58360;0.000;0.000;2023-09-12T08:48:40;26.70;91.10
70762;DHT22;58360;0.000;0.000;2023-09-12T08:51:06;26.90;90.20
70762;DHT22;58360;0.000;0.000;2023-09-12T08:53:32;27.20;90.40
70762;DHT22;58360;0.000;0.000;2023-09-12T08:55:58;28.00;90.70
70762;DHT22;58360;0.000;0.000;2023-09-12T08:58:25;29.50;81.60
70762;DHT22;58360;0.000;0.000;2023-09-12T09:00:50;30.90;83.70
70762;DHT22;58360;0.000;0.000;2023-09-12T09:03:17;31.60;79.20
70762;DHT22;58360;0.000;0.000;2023-09-12T09:05:43;32.30;78.00
70762;DHT22;58360;0.000;0.000;2023-09-12T09:08:09;32.70;75.40
70762;DHT22;58360;0.000;0.000;2023-09-12T09:10:35;32.90;73.80
70762;DHT22;58360;0.000;0.000;2023-09-12T09:13:01;33.20;74.70
70762;DHT22;58360;0.000;0.000;2023-09-12T09:15:27;33.90;69.70
70762;DHT22;58360;0.000;0.000;2023-09-12T09:17:53;35.00;67.80
70762;DHT22;58360;0.000;0.000;2023-09-12T09:20:24;35.40;66.60
70762;DHT22;58360;0.000;0.000;2023-09-12T09:23:09;35.00;66.10
70762;DHT22;58360;0.000;0.000;2023-09-12T09:25:35;35.20;67.80
70762;DHT22;58360;0.000;0.000;2023-09-12T09:28:04;36.60;63.30
70762;DHT22;58360;0.000;0.000;2023-09-12T09:30:43;37.50;61.00
70762;DHT22;58360;0.000;0.000;2023-09-12T09:33:09;36.80;59.70
70762;DHT22;58360;0.000;0.000;2023-09-12T09:35:35;35.80;62.00
70762;DHT22;58360;0.000;0.000;2023-09-12T09:38:01;35.20;61.60
70762;DHT22;58360;0.000;0.000;2023-09-12T09:40:27;34.50;65.00
70762;DHT22;58360;0.000;0.000;2023-09-12T09:42:58;34.10;63.60
70762;DHT22;58360;0.000;0.000;2023-09-12T09:45:23;34.20;64.00
70762;DHT22;58360;0.000;0.000;2023-09-12T09:47:49;33.80;63.60
70762;DHT22;58360;0.000;0.000;2023-09-12T09:50:15;34.30;65.00
70762;DHT22;58360;0.000;0.000;2023-09-12T09:52:42;34.60;63.70
70762;DHT22;58360;0.000;0.000;2023-09-12T09:55:08;35.10;63.30
70762;DHT22;58360;0.000;0.000;2023-09-12T09:57:36;35.90;58.20
70762;DHT22;58360;0.000;0.000;2023-09-12T10:00:03;36.20;61.60
70762;DHT22;58360;0.000;0.000;2023-09-12T10:02:34;36.50;61.70
70762;DHT22;58360;0.000;0.000;2023-09-12T10:05:00;37.00;60.40
70762;DHT22;58360;0.000;0.000;2023-09-12T10:07:29;37.10;56.70
70762;DHT22;58360;0.000;0.000;2023-09-12T10:09:56;37.90;56.80
70762;DHT22;58360;0.000;0.000;2023-09-12T10:12:22;38.20;59.00
70762;DHT22;58360;0.000;0.000;2023-09-12T10:14:49;38.70;58.20
70762;DHT22;58360;0.000;0.000;2023-09-12T10:17:14;39.20;52.40
70762;DHT22;58360;0.000;0.000;2023-09-12T10:19:43;39.50;57.20
70762;DHT22;58360;0.000;0.000;2023-09-12T10:22:18;39.90;54.70
70762;DHT22;58360;0.000;0.000;2023-09-12T10:24:45;40.00;52.00
70762;DHT22;58360;0.000;0.000;2023-09-12T10:27:12;40.70;52.70
70762;DHT22;58360;0.000;0.000;2023-09-12T10:29:38;40.70;51.60
70762;DHT22;58360;0.000;0.000;2023-09-12T10:32:03;39.40;55.10
70762;DHT22;58360;0.000;0.000;2023-09-12T10:34:30;40.30;53.90
70762;DHT22;58360;0.000;0.000;2023-09-12T10:36:55;40.50;50.90
70762;DHT22;58360;0.000;0.000;2023-09-12T10:39:23;40.00;52.00
70762;DHT22;58360;0.000;0.000;2023-09-12T10:41:50;39.40;55.30
70762;DHT22;58360;0.000;0.000;2023-09-12T10:44:17;38.90;52.90
70762;DHT22;58360;0.000;0.000;2023-09-12T10:46:43;39.10;55.30
70762;DHT22;58360;0.000;0.000;2023-09-12T10:49:10;39.50;54.00
70762;DHT22;58360;0.000;0.000;2023-09-12T10:51:39;40.20;52.00
70762;DHT22;58360;0.000;0.000;2023-09-12T10:54:05;40.40;52.00
70762;DHT22;58360;0.000;0.000;2023-09-12T10:56:31;40.70;52.20
70762;DHT22;58360;0.000;0.000;2023-09-12T11:01:29;41.20;50.20
70762;DHT22;58360;0.000;0.000;2023-09-12T11:03:55;40.90;52.20
70762;DHT22;58360;0.000;0.000;2023-09-12T11:06:30;41.10;53.70
70762;DHT22;58360;0.000;0.000;2023-09-12T11:09:29;41.60;50.00
70762;DHT22;58360;0.000;0.000;2023-09-12T11:11:48;40.80;52.10
70762;DHT22;58360;0.000;0.000;2023-09-12T11:14:15;40.50;51.80
70762;DHT22;58360;0.000;0.000;2023-09-12T11:16:41;41.20;46.50
70762;DHT22;58360;0.000;0.000;2023-09-12T11:19:19;41.40;49.00
70762;DHT22;58360;0.000;0.000;2023-09-12T11:21:46;40.70;49.50
70762;DHT22;58360;0.000;0.000;2023-09-12T11:24:12;40.00;50.70
70762;DHT22;58360;0.000;0.000;2023-09-12T11:26:54;40.70;48.30
70762;DHT22;58360;0.000;0.000;2023-09-12T11:29:20;41.20;50.50
70762;DHT22;58360;0.000;0.000;2023-09-12T11:32:01;41.60;53.00
70762;DHT22;58360;0.000;0.000;2023-09-12T11:34:52;41.30;51.70
70762;DHT22;58360;0.000;0.000;2023-09-12T11:37:26;41.80;46.20
70762;DHT22;58360;0.000;0.000;2023-09-12T11:39:53;41.30;51.80
70762;DHT22;58360;0.000;0.000;2023-09-12T11:42:18;42.20;50.10
70762;DHT22;58360;0.000;0.000;2023-09-12T11:44:44;41.90;52.00
70762;DHT22;58360;0.000;0.000;2023-09-12T11:47:13;41.60;50.50
70762;DHT22;58360;0.000;0.000;2023-09-12T11:49:39;40.80;50.60
70762;DHT22;58360;0.000;0.000;2023-09-12T11:52:12;40.70;49.00
70762;DHT22;58360;0.000;0.000;2023-09-12T11:54:38;41.30;49.90
70762;DHT22;58360;0.000;0.000;2023-09-12T11:57:04;40.80;51.90
70762;DHT22;58360;0.000;0.000;2023-09-12T11:59:32;41.80;50.10
70762;DHT22;58360;0.000;0.000;2023-09-12T12:02:00;42.90;47.70
70762;DHT22;58360;0.000;0.000;2023-09-12T12:04:26;43.30;47.50
70762;DHT22;58360;0.000;0.000;2023-09-12T12:06:52;42.80;48.40
70762;DHT22;58360;0.000;0.000;2023-09-12T12:09:18;42.50;49.30
70762;DHT22;58360;0.000;0.000;2023-09-12T12:11:47;43.10;46.20
70762;DHT22;58360;0.000;0.000;2023-09-12T12:14:13;42.10;46.50
70762;DHT22;58360;0.000;0.000;2023-09-12T12:16:43;42.10;44.40
70762;DHT22;58360;0.000;0.000;2023-09-12T12:19:10;41.40;48.20
70762;DHT22;58360;0.000;0.000;2023-09-12T12:21:40;41.00;47.60
70762;DHT22;58360;0.000;0.000;2023-09-12T12:24:07;39.80;49.60
70762;DHT22;58360;0.000;0.000;2023-09-12T12:26:33;39.00;49.80
70762;DHT22;58360;0.000;0.000;2023-09-12T12:29:03;38.90;49.60
70762;DHT22;58360;0.000;0.000;2023-09-12T12:31:28;39.10;51.30
70762;DHT22;58360;0.000;0.000;2023-09-12T12:33:54;39.40;50.20
70762;DHT22;58360;0.000;0.000;2023-09-12T12:36:21;39.80;49.40
70762;DHT22;58360;0.000;0.000;2023-09-12T12:38:47;39.20;49.70
70762;DHT22;58360;0.000;0.000;2023-09-12T12:41:13;38.30;49.90
70762;DHT22;58360;0.000;0.000;2023-09-12T12:43:39;37.70;53.90
70762;DHT22;58360;0.000;0.000;2023-09-12T12:46:09;38.30;51.30
70762;DHT22;58360;0.000;0.000;2023-09-12T12:48:35;38.70;48.10
70762;DHT22;58360;0.000;0.000;2023-09-12T12:53:42;39.30;51.50
70762;DHT22;58360;0.000;0.000;2023-09-12T12:56:08;39.80;49.20
70762;DHT22;58360;0.000;0.000;2023-09-12T12:58:36;40.30;49.30
70762;DHT22;58360;0.000;0.000;2023-09-12T13:01:02;40.70;48.30
70762;DHT22;58360;0.000;0.000;2023-09-12T13:03:27;40.80;48.80
70762;DHT22;58360;0.000;0.000;2023-09-12T13:05:53;41.00;49.10
70762;DHT22;58360;0.000;0.000;2023-09-12T13:08:18;41.20;48.10
70762;DHT22;58360;0.000;0.000;2023-09-12T13:10:44;41.20;47.40
70762;DHT22;58360;0.000;0.000;2023-09-12T13:13:10;40.80;45.70
70762;DHT22;58360;0.000;0.000;2023-09-12T13:15:35;40.40;48.00
70762;DHT22;58360;0.000;0.000;2023-09-12T13:18:01;39.80;48.60
70762;DHT22;58360;0.000;0.000;2023-09-12T13:20:26;39.30;47.90
70762;DHT22;58360;0.000;0.000;2023-09-12T13:22:52;38.90;50.30
70762;DHT22;58360;0.000;0.000;2023-09-12T13:25:18;38.30;48.50
70762;DHT22;58360;0.000;0.000;2023-09-12T13:27:45;37.70;50.20
70762;DHT22;58360;0.000;0.000;2023-09-12T13:30:11;37.00;50.80
70762;DHT22;58360;0.000;0.000;2023-09-12T13:32:36;37.00;54.00
70762;DHT22;58360;0.000;0.000;2023-09-12T13:35:02;37.10;50.60
70762;DHT22;58360;0.000;0.000;2023-09-12T13:37:28;36.90;49.30
70762;DHT22;58360;0.000;0.000;2023-09-12T13:39:55;36.10;50.70
70762;DHT22;58360;0.000;0.000;2023-09-12T13:42:20;35.70;51.70
70762;DHT22;58360;0.000;0.000;2023-09-12T13:44:49;35.20;53.70
70762;DHT22;58360;0.000;0.000;2023-09-12T13:47:15;34.80;53.10
70762;DHT22;58360;0.000;0.000;2023-09-12T13:49:47;34.30;52.60
70762;DHT22;58360;0.000;0.000;2023-09-12T13:52:13;33.70;55.40
70762;DHT22;58360;0.000;0.000;2023-09-12T13:54:40;33.30;55.00
70762;DHT22;58360;0.000;0.000;2023-09-12T13:57:05;33.20;54.90
70762;DHT22;58360;0.000;0.000;2023-09-12T13:59:31;32.90;55.40
70762;DHT22;58360;0.000;0.000;2023-09-12T14:01:56;32.80;53.00
70762;DHT22;58360;0.000;0.000;2023-09-12T14:04:22;32.60;56.90
70762;DHT22;58360;0.000;0.000;2023-09-12T14:06:47;32.40;56.40
70762;DHT22;58360;0.000;0.000;2023-09-12T14:09:13;32.30;57.20
70762;DHT22;58360;0.000;0.000;2023-09-12T14:11:39;32.40;55.10
70762;DHT22;58360;0.000;0.000;2023-09-12T14:14:05;32.30;53.60
70762;DHT22;58360;0.000;0.000;2023-09-12T14:16:31;32.20;57.20
70762;DHT22;58360;0.000;0.000;2023-09-12T14:18:56;32.10;57.00
70762;DHT22;58360;0.000;0.000;2023-09-12T14:21:22;32.00;54.20
70762;DHT22;58360;0.000;0.000;2023-09-12T14:23:47;31.80;56.70
70762;DHT22;58360;0.000;0.000;2023-09-12T14:26:13;31.40;57.60
70762;DHT22;58360;0.000;0.000;2023-09-12T14:28:38;31.30;60.00
70762;DHT22;58360;0.000;0.000;2023-09-12T14:31:04;31.30;58.10
70762;DHT22;58360;0.000;0.000;2023-09-12T14:33:31;31.50;57.00
70762;DHT22;58360;0.000;0.000;2023-09-12T14:35:57;31.40;57.50
70762;DHT22;58360;0.000;0.000;2023-09-12T14:38:22;31.30;59.80
70762;DHT22;58360;0.000;0.000;2023-09-12T14:40:49;31.30;58.20
70762;DHT22;58360;0.000;0.000;2023-09-12T14:43:14;31.20;58.50
70762;DHT22;58360;0.000;0.000;2023-09-12T14:45:40;31.10;59.60
70762;DHT22;58360;0.000;0.000;2023-09-12T14:48:06;31.20;57.90
70762;DHT22;58360;0.000;0.000;2023-09-12T14:50:32;31.00;58.60
70762;DHT22;58360;0.000;0.000;2023-09-12T14:52:58;30.80;60.30
70762;DHT22;58360;0.000;0.000;2023-09-12T14:55:23;30.60;59.10
70762;DHT22;58360;0.000;0.000;2023-09-12T14:57:49;30.60;60.20
70762;DHT22;58360;0.000;0.000;2023-09-12T15:00:15;30.40;61.10
70762;DHT22;58360;0.000;0.000;2023-09-12T15:02:40;30.40;62.70
70762;DHT22;58360;0.000;0.000;2023-09-12T15:05:07;30.40;61.90
70762;DHT22;58360;0.000;0.000;2023-09-12T15:07:33;30.40;60.00
70762;DHT22;58360;0.000;0.000;2023-09-12T15:09:59;30.40;60.70
70762;DHT22;58360;0.000;0.000;2023-09-12T15:12:25;30.20;63.00
70762;DHT22;58360;0.000;0.000;2023-09-12T15:14:51;30.10;62.70
70762;DHT22;58360;0.000;0.000;2023-09-12T15:17:17;30.10;63.40
70762;DHT22;58360;0.000;0.000;2023-09-12T15:19:42;30.00;62.40
70762;DHT22;58360;0.000;0.000;2023-09-12T15:22:08;30.00;63.50
70762;DHT22;58360;0.000;0.000;2023-09-12T15:24:33;30.10;64.70
70762;DHT22;58360;0.000;0.000;2023-09-12T15:26:59;29.80;65.50
70762;DHT22;58360;0.000;0.000;2023-09-12T15:29:24;29.70;66.40
70762;DHT22;58360;0.000;0.000;2023-09-12T15:31:50;29.60;66.70
70762;DHT22;58360;0.000;0.000;2023-09-12T15:34:15;29.50;67.10
70762;DHT22;58360;0.000;0.000;2023-09-12T15:36:43;29.60;67.60
70762;DHT22;58360;0.000;0.000;2023-09-12T15:39:09;29.40;67.50
70762;DHT22;58360;0.000;0.000;2023-09-12T15:41:35;29.30;68.40
70762;DHT22;58360;0.000;0.000;2023-09-12T15:44:01;29.40;68.10
70762;DHT22;58360;0.000;0.000;2023-09-12T15:46:29;29.40;68.00